Time;durP1;ratioP1;P1;durP2;ratioP2;P2;SDS_P1;SDS_P2;PMS_P1;PMS_P2;Temp;Humidity;BMP_temperature;BMP_pressure;BME280_temperature;BME280_humidity;BME280_pressure;Samples;Min_cycle;Max_cycle;Signal;HPM_P1;HPM_P2
2022/03/05 00:02:17;;;;;;;;;;;;;;;0.95;69.52;99857.28;4991068;28;19922;-79
2022/03/05 00:04:42;;;;;;;;;;;;;;;0.99;69.67;99859.00;4989377;28;19926;-82
2022/03/05 00:07:08;;;;;;;;;;;;;;;1.00;69.50;99860.75;4992103;28;19929;-82
2022/03/05 00:09:33;;;;;;;;;;;;;;;0.96;69.45;99854.69;4991056;28;20064;-81
2022/03/05 00:11:58;;;;;;;;;;;;;;;0.98;69.57;99865.97;4992037;28;19925;-81
2022/03/05 00:14:25;;;;;;;;;;;;;;;0.98;69.39;99867.72;4990455;28;20384;-82
2022/03/05 00:16:50;;;;;;;;;;;;;;;1.00;69.55;99859.00;4992366;28;19922;-81
2022/03/05 00:19:15;;;;;;;;;;;;;;;0.97;69.71;99858.13;4991929;28;20369;-81
2022/03/05 00:21:40;;;;;;;;;;;;;;;0.97;69.40;99860.75;4992689;28;19922;-86
2022/03/05 00:24:06;;;;;;;;;;;;;;;1.01;69.59;99862.50;4987358;28;19933;-82
2022/03/05 00:26:31;;;;;;;;;;;;;;;1.01;69.34;99867.72;4991351;28;19930;-81
2022/03/05 00:28:56;;;;;;;;;;;;;;;1.03;69.27;99860.75;4991479;28;19925;-79
2022/03/05 00:31:21;;;;;;;;;;;;;;;1.01;69.39;99867.72;4992656;28;19921;-81
2022/03/05 00:33:47;;;;;;;;;;;;;;;0.99;69.40;99874.66;4991851;28;19956;-79
2022/03/05 00:36:12;;;;;;;;;;;;;;;0.99;69.36;99869.44;4989486;28;19922;-80
2022/03/05 00:38:37;;;;;;;;;;;;;;;1.01;69.30;99876.41;4992479;28;19922;-81
2022/03/05 00:41:02;;;;;;;;;;;;;;;0.99;69.25;99878.16;4990652;28;20357;-83
2022/03/05 00:43:28;;;;;;;;;;;;;;;1.00;69.08;99876.41;4991999;28;19928;-82
2022/03/05 00:45:53;;;;;;;;;;;;;;;1.10;71.47;99880.72;4991437;28;19921;-82
2022/03/05 00:48:18;;;;;;;;;;;;;;;1.10;73.01;99883.31;4992590;28;19925;-81
2022/03/05 00:50:44;;;;;;;;;;;;;;;1.16;74.52;99880.69;4991230;28;19925;-79
2022/03/05 00:53:11;;;;;;;;;;;;;;;1.44;78.18;99888.44;4992669;28;20328;-81
2022/03/05 00:55:36;;;;;;;;;;;;;;;1.69;81.64;99889.22;4986960;28;19925;-82
2022/03/05 00:58:01;;;;;;;;;;;;;;;1.82;84.00;99887.41;4986994;28;19972;-79
2022/03/05 01:00:27;;;;;;;;;;;;;;;1.95;86.00;99891.66;4988998;28;19980;-79
2022/03/05 01:02:52;;;;;;;;;;;;;;;2.03;87.25;99886.41;4991254;28;19922;-79
2022/03/05 04:28:13;;;;;;;;;;;;;;;2.02;90.10;99875.94;5860293;23;20049;-76
2022/03/05 04:30:39;;;;;;;;;;;;;;;1.88;89.65;99874.28;4990531;28;19944;-78
2022/03/05 04:33:05;;;;;;;;;;;;;;;1.95;89.84;99878.59;4992828;28;20355;-77
2022/03/05 04:35:30;;;;;;;;;;;;;;;1.71;89.47;99882.22;4991859;28;19922;-77
2022/03/05 04:37:56;;;;;;;;;;;;;;;1.76;89.76;99885.69;4992566;28;20368;-76
2022/03/05 04:40:22;;;;;;;;;;;;;;;1.75;89.33;99893.53;4991521;28;19949;-76
2022/03/05 04:42:47;;;;;;;;;;;;;;;1.73;88.70;99890.91;4991125;28;19928;-78
2022/03/05 04:45:14;;;;;;;;;;;;;;;1.71;88.69;99895.28;4991380;28;19922;-78
2022/03/05 04:47:40;;;;;;;;;;;;;;;1.69;88.06;99893.53;4992426;28;19997;-77
2022/03/05 04:50:06;;;;;;;;;;;;;;;1.61;87.91;99897.09;4992565;28;19925;-78
2022/03/05 04:52:32;;;;;;;;;;;;;;;1.60;87.78;99894.47;4991750;28;19957;-77
2022/03/05 04:54:57;;;;;;;;;;;;;;;1.58;87.54;99902.31;4992366;28;20341;-78
2022/03/05 04:57:24;;;;;;;;;;;;;;;1.44;87.41;99898.91;4989891;28;19922;-78
2022/03/05 04:59:49;;;;;;;;;;;;;;;1.49;87.16;99902.34;4991092;28;19918;-77
2022/03/05 05:02:15;;;;;;;;;;;;;;;1.41;86.68;99899.75;4991196;28;19929;-78
2022/03/05 05:04:40;;;;;;;;;;;;;;;1.38;86.35;99897.16;4992189;28;20424;-79
2022/03/05 05:07:05;;;;;;;;;;;;;;;1.33;86.12;99906.75;4991153;28;19925;-78
2022/03/05 05:09:31;;;;;;;;;;;;;;;1.32;85.82;99901.53;4988314;28;20365;-79
2022/03/05 05:11:56;;;;;;;;;;;;;;;1.27;85.54;99910.25;4992171;28;19960;-78
2022/03/05 05:14:21;;;;;;;;;;;;;;;1.29;85.26;99909.38;4990917;28;20293;-78
2022/03/05 05:16:47;;;;;;;;;;;;;;;1.22;85.11;99917.22;4990945;28;20467;-78
2022/03/05 05:19:24;;;;;;;;;;;;;;;1.30;85.30;99911.13;4991121;28;20396;-77
2022/03/05 05:21:50;;;;;;;;;;;;;;;1.48;87.29;99916.28;4990812;28;19926;-77
2022/03/05 05:24:15;;;;;;;;;;;;;;;1.65;89.27;99926.66;4992214;28;19921;-80
2022/03/05 05:26:40;;;;;;;;;;;;;;;1.60;89.85;99918.84;4990712;28;19925;-77
2022/03/05 05:29:05;;;;;;;;;;;;;;;1.59;89.88;99924.94;4992789;28;19929;-77
2022/03/05 05:31:31;;;;;;;;;;;;;;;1.37;89.70;99923.28;4995863;28;19925;-78
2022/03/05 05:33:56;;;;;;;;;;;;;;;1.40;89.79;99920.66;4995814;28;19918;-78
2022/03/05 05:36:21;;;;;;;;;;;;;;;1.34;89.52;99923.28;4995827;28;19922;-78
2022/03/05 05:38:47;;;;;;;;;;;;;;;1.18;89.41;99931.19;4995622;28;20281;-78
2022/03/05 05:41:12;;;;;;;;;;;;;;;1.24;89.37;99925.91;4995611;28;19924;-77
2022/03/05 05:43:37;;;;;;;;;;;;;;;1.25;88.92;99930.28;4994370;28;19929;-80
2022/03/05 05:46:03;;;;;;;;;;;;;;;1.10;88.91;99943.34;4994116;28;20369;-78
2022/03/05 05:48:28;;;;;;;;;;;;;;;1.08;88.66;99940.75;4995641;28;19972;-78
2022/03/05 05:50:53;;;;;;;;;;;;;;;1.09;88.50;99944.25;4995416;28;20369;-77
2022/03/05 05:53:18;;;;;;;;;;;;;;;1.07;88.02;99946.84;4995613;28;19965;-77
2022/03/05 05:55:44;;;;;;;;;;;;;;;0.98;87.74;99946.84;4995254;28;19918;-77
2022/03/05 05:58:09;;;;;;;;;;;;;;;1.10;87.53;99951.19;4994036;28;19922;-77
2022/03/05 09:03:48;;;;;;;;;;;;;;;0.68;77.03;100010.34;5419486;23;19948;-78
2022/03/05 09:06:13;;;;;;;;;;;;;;;0.66;76.81;100007.72;5025713;28;20368;-76
2022/03/05 09:08:39;;;;;;;;;;;;;;;0.67;76.86;100003.38;5026229;28;19924;-76
2022/03/05 09:11:05;;;;;;;;;;;;;;;0.64;76.76;100008.59;5025727;28;19917;-76
2022/03/05 09:13:30;;;;;;;;;;;;;;;0.63;76.78;100001.66;5024218;28;19921;-77
2022/03/05 09:15:55;;;;;;;;;;;;;;;0.68;76.61;100005.13;5025934;28;20278;-76
2022/03/05 09:18:20;;;;;;;;;;;;;;;0.63;76.65;100012.09;5024360;28;19921;-76
2022/03/05 09:20:47;;;;;;;;;;;;;;;0.61;76.59;100013.84;5025660;28;19922;-78
2022/03/05 09:23:13;;;;;;;;;;;;;;;0.59;76.44;100006.00;5025402;28;19921;-78
2022/03/05 09:25:38;;;;;;;;;;;;;;;0.64;76.42;100009.47;5024337;28;19917;-79
2022/03/05 09:28:03;;;;;;;;;;;;;;;0.60;76.11;100012.94;5025342;28;20011;-76
2022/03/05 09:30:28;;;;;;;;;;;;;;;0.62;76.11;100005.13;5024183;28;20320;-77
2022/03/05 09:32:54;;;;;;;;;;;;;;;0.65;76.19;100005.13;5023043;28;20027;-78
2022/03/05 09:35:19;;;;;;;;;;;;;;;0.69;75.62;100006.88;5024137;28;20327;-75
2022/03/05 09:37:44;;;;;;;;;;;;;;;0.72;75.78;100001.66;5024105;28;20342;-76
2022/03/05 09:40:10;;;;;;;;;;;;;;;0.74;75.69;100004.28;5025145;28;19960;-79
2022/03/05 09:42:39;;;;;;;;;;;;;;;0.67;75.46;100000.78;5023671;28;20017;-79
2022/03/05 09:45:04;;;;;;;;;;;;;;;0.66;75.80;100004.28;5024289;28;19964;-76
2022/03/05 09:47:29;;;;;;;;;;;;;;;0.71;75.39;100008.59;5022473;28;19953;-78
2022/03/05 09:49:55;;;;;;;;;;;;;;;0.70;75.36;99998.16;5024851;28;19921;-76
2022/03/05 09:52:20;;;;;;;;;;;;;;;0.69;75.20;99999.91;5025236;28;19971;-79
2022/03/05 09:54:45;;;;;;;;;;;;;;;0.68;74.87;100005.13;5025281;28;19927;-78
2022/03/05 09:57:11;;;;;;;;;;;;;;;0.64;75.25;100009.47;5023735;28;19967;-79
2022/03/05 09:59:37;;;;;;;;;;;;;;;0.63;75.01;99996.44;5024603;28;19968;-79
2022/03/05 10:02:05;;;;;;;;;;;;;;;0.67;75.21;100000.78;5025197;28;20303;-77
2022/03/05 10:04:30;;;;;;;;;;;;;;;0.57;75.08;99997.28;5023695;28;19928;-77
2022/03/05 10:07:10;;;;;;;;;;;;;;;0.60;75.10;99996.44;5024667;28;20284;-77
2022/03/05 10:09:37;;;;;;;;;;;;;;;0.62;75.16;99995.53;5024452;28;20005;-76
2022/03/05 10:12:22;;;;;;;;;;;;;;;0.65;75.24;99999.91;5022691;28;19924;-77
2022/03/05 10:15:02;;;;;;;;;;;;;;;0.68;75.10;99994.69;5024042;28;19925;-77
2022/03/05 10:17:27;;;;;;;;;;;;;;;0.61;75.09;99998.19;5022408;28;19978;-78
2022/03/05 10:20:02;;;;;;;;;;;;;;;0.62;75.14;99994.69;5023160;28;19924;-79
2022/03/05 10:22:28;;;;;;;;;;;;;;;0.63;75.01;99993.84;5023644;28;19991;-76
2022/03/05 10:24:55;;;;;;;;;;;;;;;0.63;74.99;99986.00;5024336;28;20379;-77
2022/03/05 10:27:20;;;;;;;;;;;;;;;0.62;75.29;99994.69;5024754;28;20008;-77
2022/03/05 10:29:45;;;;;;;;;;;;;;;0.63;75.96;99989.47;5023991;28;20004;-80
2022/03/05 10:32:11;;;;;;;;;;;;;;;0.76;75.99;99986.88;5023180;28;19921;-76
2022/03/05 10:34:44;;;;;;;;;;;;;;;0.78;75.59;99983.38;5023053;28;19972;-76
2022/03/05 10:37:10;;;;;;;;;;;;;;;0.75;75.42;99980.81;5023583;28;20012;-76
2022/03/05 10:39:35;;;;;;;;;;;;;;;0.72;75.08;99978.19;5024488;28;20016;-77
2022/03/05 10:42:00;;;;;;;;;;;;;;;0.68;75.28;99982.50;5024485;28;19917;-77
2022/03/05 10:44:26;;;;;;;;;;;;;;;0.66;75.18;99973.84;5024032;28;19925;-79
2022/03/05 10:46:54;;;;;;;;;;;;;;;0.72;75.37;99978.19;5023815;28;19925;-77
2022/03/05 10:49:26;;;;;;;;;;;;;;;0.72;75.38;99972.97;5022122;28;19921;-76
2022/03/05 10:52:08;;;;;;;;;;;;;;;0.70;75.26;99978.19;5024120;28;19944;-78
2022/03/05 10:54:41;;;;;;;;;;;;;;;0.74;75.47;99979.06;5024073;28;19921;-77
2022/03/05 10:57:13;;;;;;;;;;;;;;;0.74;75.57;99978.19;5024087;28;19917;-78
2022/03/05 10:59:40;;;;;;;;;;;;;;;0.77;75.78;99973.84;5022682;28;20004;-78
2022/03/05 11:02:14;;;;;;;;;;;;;;;0.79;76.08;99971.22;5038877;28;19952;-77
2022/03/05 11:04:45;;;;;;;;;;;;;;;0.77;75.93;99967.75;5022671;28;19921;-77
2022/03/05 11:07:16;;;;;;;;;;;;;;;0.77;75.69;99966.00;5022720;28;19921;-76
2022/03/05 11:09:42;;;;;;;;;;;;;;;0.82;75.52;99969.47;5022746;28;19921;-76
2022/03/05 11:12:09;;;;;;;;;;;;;;;0.80;75.40;99967.72;5021751;28;20312;-79
2022/03/05 11:14:36;;;;;;;;;;;;;;;0.81;75.39;99970.34;5023355;28;19947;-79
2022/03/05 11:17:01;;;;;;;;;;;;;;;0.83;75.25;99963.41;5022575;28;19921;-77
2022/03/05 11:19:26;;;;;;;;;;;;;;;0.82;75.11;99953.84;5022229;28;20296;-77
2022/03/05 11:21:52;;;;;;;;;;;;;;;0.79;74.98;99958.19;5023068;28;19998;-77
2022/03/05 11:24:19;;;;;;;;;;;;;;;0.85;75.37;99948.63;5021954;28;19921;-77
2022/03/05 11:26:49;;;;;;;;;;;;;;;0.87;75.55;99952.09;5021339;28;19940;-79
2022/03/05 11:29:23;;;;;;;;;;;;;;;0.84;75.22;99949.47;5022606;28;19963;-77
2022/03/05 11:31:49;;;;;;;;;;;;;;;0.88;75.85;99945.16;5022954;28;19975;-79
2022/03/05 11:34:17;;;;;;;;;;;;;;;0.90;75.73;99943.41;5022131;28;20007;-78
2022/03/05 11:36:43;;;;;;;;;;;;;;;0.95;76.00;99946.84;5021764;28;20439;-80
2022/03/05 11:39:19;;;;;;;;;;;;;;;0.95;75.48;99927.75;5023079;28;19924;-76
2022/03/05 11:41:53;;;;;;;;;;;;;;;0.98;75.39;99946.00;5022179;28;20344;-79
2022/03/05 11:44:19;;;;;;;;;;;;;;;0.98;75.45;99932.94;5022966;28;20383;-78
2022/03/05 11:46:45;;;;;;;;;;;;;;;0.97;75.91;99923.38;5022464;28;20369;-77
2022/03/05 11:49:11;;;;;;;;;;;;;;;0.99;76.35;99926.84;5021828;28;19924;-79
2022/03/05 11:51:56;;;;;;;;;;;;;;;1.04;76.39;99930.34;5021758;28;20007;-79
2022/03/05 11:54:22;;;;;;;;;;;;;;;1.05;76.35;99921.63;5022340;28;19917;-80
2022/03/05 11:57:08;;;;;;;;;;;;;;;1.07;75.84;99919.91;5022420;28;19928;-79
2022/03/05 11:59:37;;;;;;;;;;;;;;;1.08;75.33;99919.00;5021557;28;19917;-78
2022/03/05 12:02:02;;;;;;;;;;;;;;;1.10;75.23;99919.84;5022729;28;19928;-80
2022/03/05 12:04:28;;;;;;;;;;;;;;;1.07;75.09;99904.25;5020231;28;19926;-79
2022/03/05 12:06:59;;;;;;;;;;;;;;;1.09;75.41;99905.09;5020718;28;19924;-78
2022/03/05 12:09:32;;;;;;;;;;;;;;;1.13;75.64;99906.81;5021874;28;19925;-80
2022/03/05 12:11:59;;;;;;;;;;;;;;;1.13;74.94;99904.19;5021640;28;19967;-78
2022/03/05 12:14:44;;;;;;;;;;;;;;;1.18;74.47;99902.47;5021541;28;20361;-79
2022/03/05 12:17:10;;;;;;;;;;;;;;;1.20;73.64;99902.47;5020290;28;19917;-77
2022/03/05 12:19:35;;;;;;;;;;;;;;;1.15;73.63;99897.25;5020902;28;19928;-80
2022/03/05 12:22:00;;;;;;;;;;;;;;;1.27;73.32;99901.56;5022194;28;19961;-79
2022/03/05 12:24:25;;;;;;;;;;;;;;;1.22;72.72;99898.94;5022051;28;19925;-79
2022/03/05 12:26:55;;;;;;;;;;;;;;;1.24;72.99;99896.34;5022018;28;19922;-77
2022/03/05 12:29:21;;;;;;;;;;;;;;;1.24;72.70;99896.34;5022317;28;19924;-78
2022/03/05 12:31:46;;;;;;;;;;;;;;;1.27;72.42;99896.34;5022405;28;19925;-77
2022/03/05 12:34:12;;;;;;;;;;;;;;;1.30;72.10;99900.69;5020569;28;20004;-78
2022/03/05 12:36:41;;;;;;;;;;;;;;;1.25;72.28;99892.88;5021818;28;19948;-77
2022/03/05 12:39:06;;;;;;;;;;;;;;;1.23;72.47;99884.19;5022529;28;19948;-77
2022/03/05 12:41:31;;;;;;;;;;;;;;;1.26;73.29;99887.63;5022113;28;19921;-77
2022/03/05 12:43:57;;;;;;;;;;;;;;;1.36;73.34;99890.22;5021621;28;19925;-77
2022/03/05 12:46:22;;;;;;;;;;;;;;;1.32;73.11;99878.03;5020580;28;19921;-78
2022/03/05 12:48:47;;;;;;;;;;;;;;;1.31;72.72;99887.63;5020877;28;19922;-77
2022/03/05 12:51:13;;;;;;;;;;;;;;;1.43;74.21;99873.66;5022040;28;19929;-77
2022/03/05 12:53:40;;;;;;;;;;;;;;;1.79;77.18;99869.13;5020560;28;20384;-76
2022/03/05 12:56:06;;;;;;;;;;;;;;;1.98;79.67;99873.34;5021020;28;20011;-76
2022/03/05 12:58:32;;;;;;;;;;;;;;;2.08;81.32;99863.69;5020783;28;20020;-79
2022/03/05 13:00:59;;;;;;;;;;;;;;;2.15;82.68;99862.78;5020615;28;20012;-77
2022/03/05 13:03:25;;;;;;;;;;;;;;;2.18;83.54;99867.97;5020737;28;19917;-78
2022/03/05 13:05:54;;;;;;;;;;;;;;;2.21;84.27;99866.25;5021485;28;19921;-76
2022/03/05 13:08:19;;;;;;;;;;;;;;;2.30;85.16;99856.56;5019767;28;20007;-80
2022/03/05 13:10:48;;;;;;;;;;;;;;;2.34;85.78;99858.25;5021900;28;20419;-80
2022/03/05 13:13:14;;;;;;;;;;;;;;;2.34;86.49;99857.41;5020482;28;19924;-79
2022/03/05 13:15:40;;;;;;;;;;;;;;;2.31;88.01;99853.09;5020400;28;20308;-80
2022/03/05 13:18:05;;;;;;;;;;;;;;;2.36;89.36;99858.25;5018977;28;19917;-77
2022/03/05 13:20:31;;;;;;;;;;;;;;;2.32;90.17;99857.41;5021513;28;19990;-78
2022/03/05 13:22:56;;;;;;;;;;;;;;;2.29;90.82;99862.66;5021340;28;19929;-77
2022/03/05 13:25:22;;;;;;;;;;;;;;;2.27;91.57;99858.34;5020605;28;19917;-78
2022/03/05 13:27:47;;;;;;;;;;;;;;;2.31;92.88;99855.69;5019979;28;19924;-78
2022/03/05 13:30:17;;;;;;;;;;;;;;;2.30;93.83;99859.19;5021387;28;19921;-79
2022/03/05 13:32:46;;;;;;;;;;;;;;;2.35;94.92;99854.78;5019812;28;19943;-79
2022/03/05 13:35:12;;;;;;;;;;;;;;;2.45;96.25;99849.47;5020560;28;19921;-79
2022/03/05 13:37:38;;;;;;;;;;;;;;;2.54;97.98;99855.50;5020177;28;19944;-79
2022/03/05 13:40:08;;;;;;;;;;;;;;;2.71;99.24;99842.25;5021663;28;19952;-78
2022/03/05 13:42:34;;;;;;;;;;;;;;;2.89;100.00;99846.44;5020903;28;19925;-78
2022/03/05 13:45:01;;;;;;;;;;;;;;;2.97;100.00;99843.75;5020219;28;19924;-79
2022/03/05 13:47:27;;;;;;;;;;;;;;;3.08;100.00;99834.00;5019965;28;19921;-79
2022/03/05 13:49:52;;;;;;;;;;;;;;;3.08;100.00;99839.25;5022698;28;19921;-79
2022/03/05 13:52:19;;;;;;;;;;;;;;;3.20;100.00;99842.59;5025516;28;19928;-78
2022/03/05 13:54:48;;;;;;;;;;;;;;;3.24;100.00;99841.69;5023945;28;20307;-79
2022/03/05 13:57:24;;;;;;;;;;;;;;;3.29;100.00;99842.50;5022639;28;20343;-77
2022/03/05 13:59:49;;;;;;;;;;;;;;;3.39;100.00;99846.72;5024701;28;19918;-78
2022/03/05 14:02:15;;;;;;;;;;;;;;;3.43;100.00;99837.94;5022996;28;19941;-77
2022/03/05 14:05:07;;;;;;;;;;;;;;;3.45;100.00;99841.41;5022552;28;20339;-77
2022/03/05 14:07:36;;;;;;;;;;;;;;;3.54;100.00;99839.53;5023608;28;19917;-78
2022/03/05 14:10:02;;;;;;;;;;;;;;;3.56;100.00;99849.13;5024731;28;19962;-79
2022/03/05 14:12:28;;;;;;;;;;;;;;;3.58;100.00;99843.88;5024311;28;19928;-77
2022/03/05 14:15:02;;;;;;;;;;;;;;;3.58;100.00;99842.13;5025031;28;19921;-76
2022/03/05 14:17:32;;;;;;;;;;;;;;;3.61;100.00;99842.06;5023075;28;20399;-77
2022/03/05 14:20:04;;;;;;;;;;;;;;;3.64;100.00;99841.19;5024545;28;19932;-78
2022/03/05 14:22:37;;;;;;;;;;;;;;;3.68;100.00;99840.22;5024243;28;19918;-79
2022/03/05 14:25:03;;;;;;;;;;;;;;;3.72;100.00;99838.41;5024714;28;19948;-78
2022/03/05 14:27:28;;;;;;;;;;;;;;;3.26;100.00;99834.66;5024415;28;19925;-79
2022/03/05 14:29:54;;;;;;;;;;;;;;;2.65;100.00;99831.84;5024239;28;20439;-79
2022/03/05 14:32:19;;;;;;;;;;;;;;;2.40;98.89;99835.56;5023292;28;20420;-79
2022/03/05 14:34:44;;;;;;;;;;;;;;;2.23;96.63;99828.72;5024146;28;19922;-76
2022/03/05 14:37:09;;;;;;;;;;;;;;;2.05;95.00;99837.59;5023917;28;19956;-77
2022/03/05 14:39:35;;;;;;;;;;;;;;;2.04;93.17;99838.44;5023897;28;19928;-78
2022/03/05 14:42:00;;;;;;;;;;;;;;;1.96;91.76;99835.03;5024075;28;19917;-76
2022/03/05 14:44:25;;;;;;;;;;;;;;;1.95;90.18;99831.56;5024417;28;19921;-79
2022/03/05 14:46:53;;;;;;;;;;;;;;;1.79;89.45;99835.16;5022833;28;20341;-77
2022/03/05 14:49:20;;;;;;;;;;;;;;;1.71;88.33;99827.38;5022337;28;20423;-78
2022/03/05 14:51:47;;;;;;;;;;;;;;;1.61;87.25;99836.13;5037445;28;19944;-77
2022/03/05 14:54:12;;;;;;;;;;;;;;;1.70;86.47;99843.03;5024214;28;19986;-80
2022/03/05 14:56:38;;;;;;;;;;;;;;;1.45;85.63;99830.09;5024042;28;20356;-77
2022/03/05 14:59:04;;;;;;;;;;;;;;;1.42;84.87;99827.50;5022251;28;19917;-79
2022/03/05 15:01:30;;;;;;;;;;;;;;;1.34;84.20;99824.97;5023558;28;19921;-77
2022/03/05 15:03:55;;;;;;;;;;;;;;;1.31;83.44;99831.91;5019543;28;20027;-76
2022/03/05 15:06:21;;;;;;;;;;;;;;;1.23;83.00;99837.19;5023689;28;19921;-77
2022/03/05 15:08:46;;;;;;;;;;;;;;;1.32;82.78;99823.22;5024067;28;19913;-79
2022/03/05 15:11:11;;;;;;;;;;;;;;;1.29;82.30;99828.44;5022225;28;19917;-77
2022/03/05 15:13:37;;;;;;;;;;;;;;;1.24;81.89;99824.09;5022884;28;19927;-77
2022/03/05 15:16:02;;;;;;;;;;;;;;;1.16;81.60;99830.25;5023405;28;20316;-77
2022/03/05 15:18:28;;;;;;;;;;;;;;;1.08;81.42;99825.03;5021826;28;19917;-79
2022/03/05 15:20:53;;;;;;;;;;;;;;;0.97;81.42;99825.06;5023283;28;20007;-77
2022/03/05 15:23:18;;;;;;;;;;;;;;;0.98;81.60;99824.22;5022339;28;19921;-78
2022/03/05 15:25:43;;;;;;;;;;;;;;;0.97;81.30;99824.22;5023261;28;19939;-79
2022/03/05 15:28:09;;;;;;;;;;;;;;;1.04;81.41;99823.34;5022919;28;20368;-79
2022/03/05 15:30:35;;;;;;;;;;;;;;;1.05;80.90;99823.34;5023221;28;20084;-78
2022/03/05 15:33:03;;;;;;;;;;;;;;;0.92;80.66;99820.75;5020331;28;19921;-78
2022/03/05 15:35:29;;;;;;;;;;;;;;;0.89;80.87;99819.91;5022071;28;19925;-80
2022/03/05 15:37:54;;;;;;;;;;;;;;;0.92;80.53;99825.97;5023078;28;19917;-79
2022/03/05 15:40:20;;;;;;;;;;;;;;;0.95;79.99;99818.16;5022653;28;19986;-79
2022/03/05 15:42:45;;;;;;;;;;;;;;;0.84;80.24;99823.38;5022827;28;19949;-79
2022/03/05 15:45:11;;;;;;;;;;;;;;;0.93;80.49;99823.38;5021250;28;19986;-76
2022/03/05 15:47:36;;;;;;;;;;;;;;;0.80;80.35;99816.44;5020351;28;20242;-77
2022/03/05 15:50:02;;;;;;;;;;;;;;;0.82;80.74;99822.53;5021513;28;19921;-78
2022/03/05 15:52:28;;;;;;;;;;;;;;;0.79;80.32;99823.41;5022166;28;19951;-79
2022/03/05 15:54:53;;;;;;;;;;;;;;;0.82;79.95;99820.78;5021023;28;20003;-79
2022/03/05 15:57:18;;;;;;;;;;;;;;;0.75;79.86;99828.63;5018754;28;19917;-77
2022/03/05 15:59:43;;;;;;;;;;;;;;;0.84;80.02;99828.59;5006710;28;20389;-79
2022/03/05 16:02:10;;;;;;;;;;;;;;;0.79;79.92;99831.22;4998126;28;20257;-77
2022/03/05 16:04:36;;;;;;;;;;;;;;;0.68;79.53;99830.38;5000434;28;20358;-77
2022/03/05 16:07:02;;;;;;;;;;;;;;;0.71;79.67;99832.97;5000788;28;19926;-78
2022/03/05 16:09:27;;;;;;;;;;;;;;;0.67;79.94;99834.75;5000959;28;19929;-77
2022/03/05 16:11:52;;;;;;;;;;;;;;;0.72;79.87;99839.94;4998352;28;19926;-78
2022/03/05 16:14:17;;;;;;;;;;;;;;;0.65;79.39;99846.03;5000468;28;19925;-79
2022/03/05 16:16:43;;;;;;;;;;;;;;;0.70;79.61;99841.66;4999831;28;19953;-76
2022/03/05 16:19:08;;;;;;;;;;;;;;;0.65;79.21;99846.03;4995944;28;19926;-77
2022/03/05 16:21:34;;;;;;;;;;;;;;;0.63;79.15;99855.59;4999854;28;19922;-79
2022/03/05 16:23:59;;;;;;;;;;;;;;;0.57;79.01;99853.00;5000545;28;19969;-77
2022/03/05 16:26:24;;;;;;;;;;;;;;;0.50;78.96;99849.53;5001447;28;19922;-77
2022/03/05 16:28:51;;;;;;;;;;;;;;;0.54;78.94;99846.94;5000232;28;19992;-77
2022/03/05 16:31:16;;;;;;;;;;;;;;;0.48;79.00;99846.03;4997911;28;20373;-81
2022/03/05 16:33:43;;;;;;;;;;;;;;;0.50;79.34;99836.50;4999879;28;19947;-77
2022/03/05 16:36:08;;;;;;;;;;;;;;;0.41;79.12;99839.97;5002260;28;19921;-81
2022/03/05 16:38:34;;;;;;;;;;;;;;;0.53;79.12;99839.09;5002884;28;19925;-78
2022/03/05 16:40:59;;;;;;;;;;;;;;;0.49;79.39;99837.34;5000947;28;20024;-80
2022/03/05 16:43:25;;;;;;;;;;;;;;;0.43;79.29;99839.97;5000348;28;19928;-79
2022/03/05 16:45:51;;;;;;;;;;;;;;;0.43;79.15;99838.25;5001317;28;19924;-79
2022/03/05 16:48:16;;;;;;;;;;;;;;;0.52;79.15;99837.34;5000783;28;19929;-78
2022/03/05 16:50:41;;;;;;;;;;;;;;;0.40;79.31;99837.34;5000985;28;19924;-79
2022/03/05 16:53:07;;;;;;;;;;;;;;;0.41;79.22;99841.72;4998653;28;19932;-79
2022/03/05 16:55:32;;;;;;;;;;;;;;;0.41;79.18;99842.56;4998554;28;19929;-79
2022/03/05 16:57:57;;;;;;;;;;;;;;;0.42;78.92;99846.94;5002140;28;19924;-78
2022/03/05 17:00:23;;;;;;;;;;;;;;;0.38;79.14;99845.19;4999946;28;19918;-79
2022/03/05 17:02:48;;;;;;;;;;;;;;;0.35;79.12;99850.38;5000645;28;19917;-78
2022/03/05 17:05:14;;;;;;;;;;;;;;;0.32;79.06;99848.69;5001929;28;20003;-80
2022/03/05 17:07:40;;;;;;;;;;;;;;;0.27;78.86;99842.59;5002127;28;19925;-79
2022/03/05 17:10:06;;;;;;;;;;;;;;;0.28;79.14;99849.53;4995968;28;20323;-77
2022/03/05 17:12:31;;;;;;;;;;;;;;;0.42;79.15;99857.34;4999293;28;19925;-78
2022/03/05 17:14:57;;;;;;;;;;;;;;;0.30;78.66;99857.34;4999591;28;19929;-79
2022/03/05 17:17:22;;;;;;;;;;;;;;;0.27;78.71;99867.78;5000718;28;20300;-78
2022/03/05 17:19:47;;;;;;;;;;;;;;;0.30;78.53;99860.84;5001151;28;19971;-80
2022/03/05 17:22:13;;;;;;;;;;;;;;;0.35;78.45;99866.03;5000411;28;19968;-79
2022/03/05 17:24:38;;;;;;;;;;;;;;;0.30;78.26;99867.78;4995862;28;19921;-77
2022/03/05 17:27:03;;;;;;;;;;;;;;;0.35;78.35;99860.81;5004412;28;20336;-78
2022/03/05 17:29:28;;;;;;;;;;;;;;;0.31;78.24;99866.91;5005686;28;19988;-78
2022/03/05 17:31:54;;;;;;;;;;;;;;;0.35;78.24;99871.25;5004456;28;19917;-78
2022/03/05 17:34:24;;;;;;;;;;;;;;;0.39;78.24;99870.41;5004037;28;20447;-79
2022/03/05 17:36:49;;;;;;;;;;;;;;;0.21;78.10;99872.97;5005319;28;19967;-79
2022/03/05 17:39:14;;;;;;;;;;;;;;;0.30;78.26;99873.00;5004197;28;20012;-77
2022/03/05 17:41:40;;;;;;;;;;;;;;;0.33;78.10;99873.84;5001273;28;19922;-78
2022/03/05 17:44:07;;;;;;;;;;;;;;;0.33;77.83;99878.22;4997658;28;20292;-79
2022/03/05 17:46:32;;;;;;;;;;;;;;;0.41;77.92;99878.22;4999447;28;19921;-79
2022/03/05 17:48:58;;;;;;;;;;;;;;;0.38;77.50;99879.06;5002904;28;19926;-79
2022/03/05 17:51:23;;;;;;;;;;;;;;;0.31;77.23;99879.97;5002079;28;19918;-77
2022/03/05 17:53:48;;;;;;;;;;;;;;;0.27;77.40;99880.81;5000561;28;19918;-78
2022/03/05 17:56:14;;;;;;;;;;;;;;;0.30;77.55;99881.69;5002614;28;19917;-78
2022/03/05 17:58:39;;;;;;;;;;;;;;;0.30;77.52;99891.25;5001829;28;20456;-77
2022/03/05 18:01:04;;;;;;;;;;;;;;;0.39;77.20;99890.38;5003903;28;19921;-76
2022/03/05 18:03:30;;;;;;;;;;;;;;;0.24;77.03;99894.72;4998810;28;19972;-79
2022/03/05 18:05:55;;;;;;;;;;;;;;;0.27;77.08;99894.72;5003566;28;19921;-79
2022/03/05 18:08:21;;;;;;;;;;;;;;;0.14;76.93;99888.63;5004729;28;20061;-77
2022/03/05 18:10:48;;;;;;;;;;;;;;;0.32;77.13;99894.72;5003255;28;19929;-77
2022/03/05 18:13:14;;;;;;;;;;;;;;;0.31;77.09;99896.44;5004921;28;19921;-80
2022/03/05 18:15:40;;;;;;;;;;;;;;;0.33;77.04;99901.66;5000187;28;20408;-78
2022/03/05 18:18:06;;;;;;;;;;;;;;;0.33;76.98;99899.06;5000044;28;19921;-79
2022/03/05 18:20:31;;;;;;;;;;;;;;;0.23;77.00;99903.41;5004947;28;19918;-76
2022/03/05 18:22:56;;;;;;;;;;;;;;;0.34;76.77;99906.03;5003317;28;19928;-79
2022/03/05 18:25:22;;;;;;;;;;;;;;;0.28;76.48;99906.00;5004167;28;20401;-78
2022/03/05 18:27:47;;;;;;;;;;;;;;;0.35;76.62;99912.97;5003548;28;19929;-79
2022/03/05 18:30:13;;;;;;;;;;;;;;;0.25;76.68;99911.22;5004339;28;19976;-77
2022/03/05 18:32:38;;;;;;;;;;;;;;;0.30;76.57;99914.69;5000712;28;19925;-77
2022/03/05 18:35:04;;;;;;;;;;;;;;;0.30;76.60;99914.69;5000441;28;19925;-77
2022/03/05 18:37:30;;;;;;;;;;;;;;;0.31;76.76;99911.25;5002481;28;20241;-79
2022/03/05 18:39:56;;;;;;;;;;;;;;;0.31;76.89;99921.66;5003773;28;19917;-78
2022/03/05 18:42:21;;;;;;;;;;;;;;;0.34;76.32;99919.06;5001809;28;19961;-77
2022/03/05 18:44:47;;;;;;;;;;;;;;;0.34;76.17;99919.91;5003755;28;20359;-76
2022/03/05 18:47:12;;;;;;;;;;;;;;;0.26;76.01;99918.19;5000915;28;19923;-79
2022/03/05 18:49:37;;;;;;;;;;;;;;;0.28;75.83;99921.66;4999947;28;20423;-78
2022/03/05 18:52:03;;;;;;;;;;;;;;;0.26;75.82;99920.78;4995905;28;19928;-77
2022/03/05 18:54:28;;;;;;;;;;;;;;;0.28;75.79;99926.88;5001100;28;19930;-76
2022/03/05 18:56:54;;;;;;;;;;;;;;;0.30;75.96;99925.13;5000502;28;19925;-78
2022/03/05 18:59:19;;;;;;;;;;;;;;;0.26;75.43;99926.88;5001377;28;19922;-79
2022/03/05 19:01:44;;;;;;;;;;;;;;;0.29;75.68;99929.47;5000362;28;19925;-77
2022/03/05 19:04:10;;;;;;;;;;;;;;;0.21;75.38;99927.72;5003066;28;20427;-79
2022/03/05 19:06:35;;;;;;;;;;;;;;;0.34;75.40;99929.50;5001869;28;19926;-77
2022/03/05 19:09:04;;;;;;;;;;;;;;;0.39;75.27;99939.91;5002648;28;20270;-77
2022/03/05 19:11:29;;;;;;;;;;;;;;;0.29;75.40;99923.41;4999316;28;19925;-78
2022/03/05 19:13:54;;;;;;;;;;;;;;;0.25;75.32;99932.94;4998565;28;19929;-77
2022/03/05 19:16:20;;;;;;;;;;;;;;;0.28;75.46;99921.66;5000501;28;19928;-77
2022/03/05 19:18:45;;;;;;;;;;;;;;;0.40;75.39;99920.78;4999002;28;19999;-79